Time;durP1;ratioP1;P1;durP2;ratioP2;P2;SDS_P1;SDS_P2;PMS_P1;PMS_P2;Temp;Humidity;BMP_temperature;BMP_pressure;BME280_temperature;BME280_humidity;BME280_pressure;Samples;Min_cycle;Max_cycle;Signal;HPM_P1;HPM_P2
2022/07/14 00:00:35;;;;;;;;;9.50;9.50;;;;;;;;5092903;27;45389;-70
2022/07/14 00:03:00;;;;;;;;;11.00;11.00;;;;;;;;5095265;27;45297;-70
2022/07/14 00:05:25;;;;;;;;;13.25;10.75;;;;;;;;5091341;27;45443;-70
2022/07/14 00:07:51;;;;;;;;;10.25;10.25;;;;;;;;5091901;27;45465;-69
2022/07/14 00:10:16;;;;;;;;;11.00;11.00;;;;;;;;5091909;27;45373;-70
2022/07/14 00:12:41;;;;;;;;;9.25;9.25;;;;;;;;5091983;27;45320;-70
2022/07/14 00:15:07;;;;;;;;;10.50;10.50;;;;;;;;5102525;27;46090;-69
2022/07/14 00:17:32;;;;;;;;;9.00;9.00;;;;;;;;5093307;27;45393;-70
2022/07/14 00:19:57;;;;;;;;;11.00;11.00;;;;;;;;5093551;27;45383;-70
2022/07/14 00:22:22;;;;;;;;;10.75;9.50;;;;;;;;5092107;27;45436;-70
2022/07/14 00:24:48;;;;;;;;;11.75;11.50;;;;;;;;5091587;27;46302;-70
2022/07/14 00:27:13;;;;;;;;;11.50;11.00;;;;;;;;5094491;27;45429;-70
2022/07/14 00:29:38;;;;;;;;;10.25;10.25;;;;;;;;5092848;27;45470;-71
2022/07/14 00:32:06;;;;;;;;;12.00;10.75;;;;;;;;5091680;27;45463;-70
2022/07/14 00:34:31;;;;;;;;;10.25;10.25;;;;;;;;5091098;27;46457;-70
2022/07/14 00:36:57;;;;;;;;;10.25;10.25;;;;;;;;5091794;27;45476;-70
2022/07/14 00:39:22;;;;;;;;;10.25;10.25;;;;;;;;5093856;27;45322;-70
2022/07/14 00:41:47;;;;;;;;;8.25;8.25;;;;;;;;5093110;27;45328;-70
2022/07/14 00:44:12;;;;;;;;;11.75;10.00;;;;;;;;5091494;27;45450;-70
2022/07/14 00:46:38;;;;;;;;;9.00;9.00;;;;;;;;5091317;27;45344;-70
2022/07/14 00:49:03;;;;;;;;;12.25;11.75;;;;;;;;5091385;27;45504;-70
2022/07/14 00:51:29;;;;;;;;;11.33;10.67;;;;;;;;5092939;27;45541;-70
2022/07/14 00:53:55;;;;;;;;;12.25;9.00;;;;;;;;5092500;27;47011;-70
2022/07/14 00:56:20;;;;;;;;;11.50;10.00;;;;;;;;5091176;27;45388;-70
2022/07/14 00:58:45;;;;;;;;;9.25;9.25;;;;;;;;5091105;27;46133;-70
2022/07/14 01:01:10;;;;;;;;;9.25;9.25;;;;;;;;5091292;27;45559;-70
2022/07/14 01:03:36;;;;;;;;;13.25;11.00;;;;;;;;5095183;27;45436;-70
2022/07/14 01:06:02;;;;;;;;;13.50;11.00;;;;;;;;5098567;27;45449;-70
2022/07/14 01:08:27;;;;;;;;;11.25;10.75;;;;;;;;5094630;27;45586;-70
2022/07/14 01:10:52;;;;;;;;;9.25;9.25;;;;;;;;5095046;27;45393;-70
2022/07/14 01:13:18;;;;;;;;;10.00;10.00;;;;;;;;5094049;27;45574;-70
2022/07/14 01:15:43;;;;;;;;;9.25;8.50;;;;;;;;5094719;27;45513;-70
2022/07/14 01:18:08;;;;;;;;;9.75;9.25;;;;;;;;5098632;27;45496;-70
2022/07/14 01:20:33;;;;;;;;;11.00;10.00;;;;;;;;5094601;27;45379;-70
2022/07/14 01:22:59;;;;;;;;;10.25;9.75;;;;;;;;5095879;27;47161;-70
2022/07/14 01:25:24;;;;;;;;;11.50;11.50;;;;;;;;5094698;27;45439;-70
2022/07/14 01:27:49;;;;;;;;;10.25;10.25;;;;;;;;5094868;27;45538;-70
2022/07/14 01:30:15;;;;;;;;;10.50;10.50;;;;;;;;5097087;27;45477;-70
2022/07/14 01:32:40;;;;;;;;;11.25;10.25;;;;;;;;5095119;27;45386;-70
2022/07/14 01:35:06;;;;;;;;;9.00;7.50;;;;;;;;5094464;27;45483;-70
2022/07/14 01:37:32;;;;;;;;;9.75;9.50;;;;;;;;5094559;27;45358;-69
2022/07/14 01:39:57;;;;;;;;;8.00;7.33;;;;;;;;5094186;27;45462;-70
2022/07/14 01:42:22;;;;;;;;;10.50;10.50;;;;;;;;5096920;27;46615;-70
2022/07/14 01:44:48;;;;;;;;;10.00;10.00;;;;;;;;5095821;27;45444;-70
2022/07/14 01:47:13;;;;;;;;;11.00;9.50;;;;;;;;5095403;27;45421;-70
2022/07/14 01:49:38;;;;;;;;;9.75;9.50;;;;;;;;5094394;27;45395;-70
2022/07/14 01:52:04;;;;;;;;;9.50;9.00;;;;;;;;5093957;27;45526;-70
2022/07/14 01:54:29;;;;;;;;;9.25;9.25;;;;;;;;5095640;27;45411;-70
2022/07/14 01:56:55;;;;;;;;;8.33;8.33;;;;;;;;5096766;27;45351;-70
2022/07/14 01:59:20;;;;;;;;;9.67;8.33;;;;;;;;5093798;27;45488;-70
2022/07/14 02:01:46;;;;;;;;;8.00;8.00;;;;;;;;5095052;27;45462;-70
2022/07/14 02:04:15;;;;;;;;;8.33;8.33;;;;;;;;5093939;27;45339;-70
2022/07/14 02:06:49;;;;;;;;;10.00;10.00;;;;;;;;5089032;27;45346;-70
2022/07/14 02:09:14;;;;;;;;;9.00;8.33;;;;;;;;5096501;27;45450;-70
2022/07/14 02:14:24;;;;;;;;;10.00;10.00;;;;;;;;5093413;27;45535;-70
2022/07/14 02:16:49;;;;;;;;;7.67;7.67;;;;;;;;5093294;27;45346;-70
2022/07/14 02:19:14;;;;;;;;;10.00;10.00;;;;;;;;5093850;27;45401;-70
2022/07/14 02:21:40;;;;;;;;;7.67;7.67;;;;;;;;5093847;27;45410;-70
2022/07/14 02:24:07;;;;;;;;;8.50;8.50;;;;;;;;5093475;27;45479;-70
2022/07/14 02:26:32;;;;;;;;;9.00;9.00;;;;;;;;5095696;27;45286;-70
2022/07/14 02:28:57;;;;;;;;;9.33;9.33;;;;;;;;5093499;27;45400;-70
2022/07/14 02:31:23;;;;;;;;;10.33;10.00;;;;;;;;5093148;27;46565;-70
2022/07/14 02:33:48;;;;;;;;;10.25;10.25;;;;;;;;5093593;27;45466;-70
2022/07/14 02:36:13;;;;;;;;;10.67;9.67;;;;;;;;5096682;27;45376;-70
2022/07/14 02:38:38;;;;;;;;;9.00;9.00;;;;;;;;5097150;27;45375;-70
2022/07/14 02:41:07;;;;;;;;;11.00;10.00;;;;;;;;5097524;27;46398;-70
2022/07/14 02:43:33;;;;;;;;;9.67;8.67;;;;;;;;5093568;27;45405;-70
2022/07/14 02:45:58;;;;;;;;;10.67;10.00;;;;;;;;5092846;27;45354;-70
2022/07/14 02:48:24;;;;;;;;;9.00;9.00;;;;;;;;5095773;27;45475;-70
2022/07/14 02:50:49;;;;;;;;;10.50;9.00;;;;;;;;5094739;27;45453;-70
2022/07/14 02:53:14;;;;;;;;;6.67;6.67;;;;;;;;5093016;27;45988;-69
2022/07/14 02:55:39;;;;;;;;;9.25;8.00;;;;;;;;5093392;27;45572;-70
2022/07/14 02:58:04;;;;;;;;;8.25;8.25;;;;;;;;5093028;27;45562;-70
2022/07/14 03:00:30;;;;;;;;;8.50;8.50;;;;;;;;5094025;27;46089;-70
2022/07/14 03:02:56;;;;;;;;;8.50;8.50;;;;;;;;5095732;27;45389;-70
2022/07/14 03:05:21;;;;;;;;;9.50;7.00;;;;;;;;5093031;27;45347;-70
2022/07/14 03:07:46;;;;;;;;;10.33;10.33;;;;;;;;5093097;27;45541;-70
2022/07/14 03:10:11;;;;;;;;;9.67;9.67;;;;;;;;5092823;27;46461;-70
2022/07/14 03:12:37;;;;;;;;;12.75;11.50;;;;;;;;5093283;27;45353;-70
2022/07/14 03:15:02;;;;;;;;;10.00;10.00;;;;;;;;5096024;27;45538;-70
2022/07/14 03:17:27;;;;;;;;;11.00;10.00;;;;;;;;5092937;27;45455;-70
2022/07/14 03:19:53;;;;;;;;;8.33;8.33;;;;;;;;5092467;27;45505;-70
2022/07/14 03:22:18;;;;;;;;;9.75;9.75;;;;;;;;5093048;27;45469;-70
2022/07/14 03:24:43;;;;;;;;;7.75;7.75;;;;;;;;5092071;27;45374;-70
2022/07/14 03:27:08;;;;;;;;;7.75;7.75;;;;;;;;5096758;27;45267;-70
2022/07/14 03:29:34;;;;;;;;;9.33;9.33;;;;;;;;5092018;27;46299;-70
2022/07/14 03:31:59;;;;;;;;;9.25;9.00;;;;;;;;5092228;27;45473;-70
2022/07/14 03:34:24;;;;;;;;;10.00;8.25;;;;;;;;5092864;27;45316;-70
2022/07/14 03:36:49;;;;;;;;;8.33;7.00;;;;;;;;5092672;27;45466;-70
2022/07/14 03:39:14;;;;;;;;;8.25;8.25;;;;;;;;5095067;27;45217;-70
2022/07/14 03:41:40;;;;;;;;;9.50;9.25;;;;;;;;5093558;27;45586;-70
2022/07/14 03:44:05;;;;;;;;;9.75;9.75;;;;;;;;5092010;27;45275;-70
2022/07/14 03:46:30;;;;;;;;;8.00;8.00;;;;;;;;5092495;27;45287;-70
2022/07/14 03:48:55;;;;;;;;;6.00;6.00;;;;;;;;5092389;27;46709;-70
2022/07/14 03:51:21;;;;;;;;;10.67;10.33;;;;;;;;5094546;27;45707;-70
2022/07/14 03:53:46;;;;;;;;;10.33;10.33;;;;;;;;5093934;27;45346;-70
2022/07/14 03:56:11;;;;;;;;;9.00;8.33;;;;;;;;5092291;27;45306;-70
2022/07/14 03:58:36;;;;;;;;;9.50;9.25;;;;;;;;5091385;27;47099;-70
2022/07/14 04:01:02;;;;;;;;;8.00;8.00;;;;;;;;5092328;27;46340;-71
2022/07/14 04:03:27;;;;;;;;;7.25;7.25;;;;;;;;5094238;27;45488;-70
2022/07/14 04:05:52;;;;;;;;;9.25;9.25;;;;;;;;5094262;27;45603;-70
2022/07/14 04:08:18;;;;;;;;;11.75;9.75;;;;;;;;5091896;27;45516;-70
2022/07/14 04:10:43;;;;;;;;;8.75;8.75;;;;;;;;5092148;27;45314;-70
2022/07/14 04:13:08;;;;;;;;;9.50;9.50;;;;;;;;5091813;27;45419;-70
2022/07/14 04:15:33;;;;;;;;;8.67;8.67;;;;;;;;5093153;27;45403;-70
2022/07/14 04:17:59;;;;;;;;;10.25;9.50;;;;;;;;5094784;27;46413;-70
2022/07/14 04:20:24;;;;;;;;;8.00;8.00;;;;;;;;5091595;27;45459;-70
2022/07/14 04:22:50;;;;;;;;;12.00;7.75;;;;;;;;5092120;27;45407;-70
2022/07/14 04:25:15;;;;;;;;;5.00;4.00;;;;;;;;5093866;27;45637;-70
2022/07/14 04:27:41;;;;;;;;;9.25;9.25;;;;;;;;5091703;27;45985;-71
2022/07/14 04:30:07;;;;;;;;;9.75;9.75;;;;;;;;5091301;27;45435;-70
2022/07/14 04:32:33;;;;;;;;;7.67;6.33;;;;;;;;5091963;27;45455;-69
2022/07/14 04:34:59;;;;;;;;;11.67;10.67;;;;;;;;5091663;27;45346;-69
2022/07/14 04:37:24;;;;;;;;;11.00;10.00;;;;;;;;5091538;27;46674;-69
2022/07/14 04:39:49;;;;;;;;;8.00;8.00;;;;;;;;5091675;27;45374;-70
2022/07/14 04:42:14;;;;;;;;;7.33;7.33;;;;;;;;5094316;27;45392;-69
2022/07/14 04:44:41;;;;;;;;;7.00;7.00;;;;;;;;5092478;27;45520;-70
2022/07/14 04:47:06;;;;;;;;;10.50;9.25;;;;;;;;5091330;27;46155;-69
2022/07/14 04:52:20;;;;;;;;;7.33;7.33;;;;;;;;5011716;28;45421;-69
2022/07/14 04:54:45;;;;;;;;;10.33;7.67;;;;;;;;5011192;28;45504;-70
2022/07/14 04:57:11;;;;;;;;;7.00;6.25;;;;;;;;5011931;28;45364;-70
2022/07/14 04:59:36;;;;;;;;;8.00;8.00;;;;;;;;5011949;28;45459;-69
2022/07/14 05:02:02;;;;;;;;;9.00;9.00;;;;;;;;5011367;28;45429;-69
2022/07/14 05:04:27;;;;;;;;;5.33;5.33;;;;;;;;5011443;28;45500;-70
2022/07/14 05:06:52;;;;;;;;;10.00;8.33;;;;;;;;5011511;28;46405;-69
2022/07/14 05:09:18;;;;;;;;;10.00;8.00;;;;;;;;5011045;28;45438;-70
2022/07/14 05:11:44;;;;;;;;;8.00;7.67;;;;;;;;5012189;28;45330;-70
2022/07/14 05:14:09;;;;;;;;;8.33;8.33;;;;;;;;5010832;28;45618;-70
2022/07/14 05:16:35;;;;;;;;;9.00;8.50;;;;;;;;4992335;28;47240;-70
2022/07/14 05:19:00;;;;;;;;;8.00;8.00;;;;;;;;5011339;28;50370;-70
2022/07/14 05:21:26;;;;;;;;;11.00;10.00;;;;;;;;5011134;28;46012;-70
2022/07/14 05:23:51;;;;;;;;;8.00;8.00;;;;;;;;5011573;28;45483;-69
2022/07/14 05:26:17;;;;;;;;;6.75;6.75;;;;;;;;5010840;28;46180;-70
2022/07/14 05:28:42;;;;;;;;;10.00;8.50;;;;;;;;5029879;27;45644;-70
2022/07/14 05:31:07;;;;;;;;;10.75;8.75;;;;;;;;5092940;27;45343;-69
2022/07/14 05:33:33;;;;;;;;;9.25;8.50;;;;;;;;5092274;27;45227;-69
2022/07/14 05:35:58;;;;;;;;;7.00;7.00;;;;;;;;5092087;27;46610;-70
2022/07/14 05:38:23;;;;;;;;;8.67;7.00;;;;;;;;5090394;27;45389;-70
2022/07/14 05:40:51;;;;;;;;;9.25;9.25;;;;;;;;5090830;27;45453;-70
2022/07/14 05:43:19;;;;;;;;;8.00;8.00;;;;;;;;5090802;27;45548;-70
2022/07/14 05:45:44;;;;;;;;;10.00;9.00;;;;;;;;5091119;27;47534;-69
2022/07/14 05:48:09;;;;;;;;;7.67;7.00;;;;;;;;5095791;27;45326;-70
2022/07/14 05:50:34;;;;;;;;;6.67;6.67;;;;;;;;5094257;27;45474;-70
2022/07/14 05:53:00;;;;;;;;;8.00;6.33;;;;;;;;5093981;27;45441;-70
2022/07/14 05:55:25;;;;;;;;;8.00;7.33;;;;;;;;5094179;27;46539;-70
2022/07/14 05:57:51;;;;;;;;;9.00;9.00;;;;;;;;5093841;27;45441;-69
2022/07/14 06:00:17;;;;;;;;;7.33;7.33;;;;;;;;5096948;27;45291;-70
2022/07/14 06:02:42;;;;;;;;;7.00;7.00;;;;;;;;5095332;27;45414;-70
2022/07/14 06:05:07;;;;;;;;;7.33;7.33;;;;;;;;5093708;27;45835;-69
2022/07/14 06:07:33;;;;;;;;;8.33;8.33;;;;;;;;5093691;27;45398;-70
2022/07/14 06:09:58;;;;;;;;;8.00;8.00;;;;;;;;5094087;27;45422;-70
2022/07/14 06:12:23;;;;;;;;;8.50;8.50;;;;;;;;5096561;27;45413;-69
2022/07/14 06:14:49;;;;;;;;;7.33;7.33;;;;;;;;5095247;27;45542;-69
2022/07/14 06:17:15;;;;;;;;;6.75;6.75;;;;;;;;5093567;27;45479;-70
2022/07/14 06:19:40;;;;;;;;;7.00;6.67;;;;;;;;5093986;27;45725;-70
2022/07/14 06:22:06;;;;;;;;;7.00;7.00;;;;;;;;5093951;27;45384;-70
2022/07/14 06:24:32;;;;;;;;;8.00;7.00;;;;;;;;5095030;27;46263;-70
2022/07/14 06:26:57;;;;;;;;;7.00;7.00;;;;;;;;5101455;27;45511;-70
2022/07/14 06:29:22;;;;;;;;;8.00;8.00;;;;;;;;5095490;27;45306;-70
2022/07/14 06:31:49;;;;;;;;;9.00;9.00;;;;;;;;5093797;27;45658;-70
2022/07/14 06:34:14;;;;;;;;;7.67;7.67;;;;;;;;5093544;27;45481;-70
2022/07/14 06:36:39;;;;;;;;;8.67;8.67;;;;;;;;5093656;27;45542;-69
2022/07/14 06:39:04;;;;;;;;;8.67;8.00;;;;;;;;5097186;27;45317;-70
2022/07/14 06:41:29;;;;;;;;;9.00;6.33;;;;;;;;5093290;27;45415;-70
2022/07/14 06:43:55;;;;;;;;;6.67;6.67;;;;;;;;5093353;27;45335;-69
2022/07/14 06:46:20;;;;;;;;;8.00;8.00;;;;;;;;5093961;27;45424;-70
2022/07/14 06:48:45;;;;;;;;;6.50;6.50;;;;;;;;5093491;27;45235;-69
2022/07/14 06:51:10;;;;;;;;;8.00;8.00;;;;;;;;5097058;27;45523;-70
2022/07/14 06:53:36;;;;;;;;;7.00;6.67;;;;;;;;5093509;27;45309;-69
2022/07/14 06:56:01;;;;;;;;;7.67;7.67;;;;;;;;5092900;27;45340;-70
2022/07/14 06:58:26;;;;;;;;;8.33;7.33;;;;;;;;5094435;27;45293;-70
2022/07/14 07:00:51;;;;;;;;;9.00;8.00;;;;;;;;5092414;27;45798;-69
2022/07/14 07:03:17;;;;;;;;;7.00;7.00;;;;;;;;5095668;27;45587;-69
2022/07/14 07:08:28;;;;;;;;;10.00;10.00;;;;;;;;5093047;27;45845;-69
2022/07/14 07:10:55;;;;;;;;;7.33;7.33;;;;;;;;5092918;27;45340;-70
2022/07/14 07:13:20;;;;;;;;;7.00;7.00;;;;;;;;5094118;27;46665;-69
2022/07/14 07:15:45;;;;;;;;;6.67;6.67;;;;;;;;5092109;27;45511;-70
2022/07/14 07:18:10;;;;;;;;;8.50;6.75;;;;;;;;5097020;27;45317;-69
2022/07/14 07:20:36;;;;;;;;;7.00;7.00;;;;;;;;5092515;27;45620;-69
2022/07/14 07:23:01;;;;;;;;;8.00;8.00;;;;;;;;5094171;27;45398;-69
2022/07/14 07:25:27;;;;;;;;;8.33;6.33;;;;;;;;5097151;27;45391;-69
2022/07/14 07:27:52;;;;;;;;;8.67;8.33;;;;;;;;5092706;27;45445;-70
2022/07/14 07:30:17;;;;;;;;;7.67;7.67;;;;;;;;5094196;27;45350;-70
2022/07/14 07:32:43;;;;;;;;;7.00;7.00;;;;;;;;5093845;27;45452;-69
2022/07/14 07:35:08;;;;;;;;;6.00;6.00;;;;;;;;5092340;27;45357;-69
2022/07/14 07:37:33;;;;;;;;;6.25;6.25;;;;;;;;5094084;27;45486;-69
2022/07/14 07:39:59;;;;;;;;;6.67;5.67;;;;;;;;5096064;27;45508;-70
2022/07/14 07:42:25;;;;;;;;;8.00;7.67;;;;;;;;5094804;27;47046;-70
2022/07/14 07:44:50;;;;;;;;;7.33;7.00;;;;;;;;5093981;27;45371;-70
2022/07/14 07:47:16;;;;;;;;;5.67;5.67;;;;;;;;5092287;27;45451;-69
2022/07/14 07:49:41;;;;;;;;;5.67;5.67;;;;;;;;5092172;27;45525;-70
2022/07/14 07:52:06;;;;;;;;;7.67;7.67;;;;;;;;5092489;27;45990;-70
2022/07/14 07:54:32;;;;;;;;;7.33;6.67;;;;;;;;5093615;27;45284;-70
2022/07/14 07:56:59;;;;;;;;;8.00;8.00;;;;;;;;5095142;27;45481;-69
2022/07/14 07:59:24;;;;;;;;;9.00;7.67;;;;;;;;5091950;27;45439;-70
2022/07/14 08:01:50;;;;;;;;;6.67;6.67;;;;;;;;5091901;27;45646;-69
2022/07/14 08:04:15;;;;;;;;;7.33;7.33;;;;;;;;5098819;27;45558;-70
2022/07/14 08:06:41;;;;;;;;;8.00;8.00;;;;;;;;5092556;27;45564;-70
2022/07/14 08:09:11;;;;;;;;;7.00;7.00;;;;;;;;5096116;27;45331;-70
2022/07/14 08:11:36;;;;;;;;;8.67;8.67;;;;;;;;5091676;27;46724;-70
2022/07/14 08:14:01;;;;;;;;;8.33;8.00;;;;;;;;5091778;27;45304;-70
2022/07/14 08:16:27;;;;;;;;;7.33;7.33;;;;;;;;5092606;27;45233;-70
2022/07/14 08:18:52;;;;;;;;;9.00;9.00;;;;;;;;5091760;27;45466;-70
2022/07/14 08:21:18;;;;;;;;;7.00;7.00;;;;;;;;5094182;27;45611;-70
2022/07/14 08:23:43;;;;;;;;;5.25;5.25;;;;;;;;5093281;27;45349;-70
2022/07/14 08:26:08;;;;;;;;;6.00;6.00;;;;;;;;5092011;27;45761;-69
2022/07/14 08:28:33;;;;;;;;;7.33;7.33;;;;;;;;5091831;27;45391;-70
2022/07/14 08:30:58;;;;;;;;;6.67;6.67;;;;;;;;5091646;27;45536;-70
2022/07/14 08:33:24;;;;;;;;;7.00;7.00;;;;;;;;5093634;27;45665;-70
2022/07/14 08:35:49;;;;;;;;;6.33;6.33;;;;;;;;5093254;27;45365;-69
2022/07/14 08:38:14;;;;;;;;;6.00;6.00;;;;;;;;5091614;27;45485;-70
2022/07/14 08:40:40;;;;;;;;;6.00;6.00;;;;;;;;5091477;27;46577;-70
2022/07/14 08:43:05;;;;;;;;;8.00;7.00;;;;;;;;5091671;27;45563;-70
2022/07/14 08:45:34;;;;;;;;;5.33;5.33;;;;;;;;5093468;27;45486;-69
2022/07/14 08:48:00;;;;;;;;;6.00;5.67;;;;;;;;5094156;27;45305;-70
2022/07/14 08:50:28;;;;;;;;;6.33;6.33;;;;;;;;5093415;27;45498;-70
2022/07/14 08:52:53;;;;;;;;;8.33;7.00;;;;;;;;5091492;27;45484;-69
2022/07/14 08:55:19;;;;;;;;;8.00;7.00;;;;;;;;5091223;27;45361;-70
2022/07/14 08:57:44;;;;;;;;;6.33;6.33;;;;;;;;5091405;27;45356;-70
2022/07/14 09:00:12;;;;;;;;;6.67;6.67;;;;;;;;5095349;27;46573;-70
2022/07/14 09:02:38;;;;;;;;;5.00;5.00;;;;;;;;5091344;27;45387;-69
2022/07/14 09:05:03;;;;;;;;;6.33;6.33;;;;;;;;5091566;27;45454;-70
2022/07/14 09:07:30;;;;;;;;;7.33;7.33;;;;;;;;5091348;27;45495;-70
2022/07/14 09:10:12;;;;;;;;;5.00;5.00;;;;;;;;5091323;27;46225;-69
2022/07/14 09:12:38;;;;;;;;;5.00;5.00;;;;;;;;5091832;27;46315;-69
2022/07/14 09:17:49;;;;;;;;;6.00;6.00;;;;;;;;5094188;27;45458;-69
2022/07/14 09:20:15;;;;;;;;;7.00;7.00;;;;;;;;5092648;27;46608;-70
2022/07/14 09:22:41;;;;;;;;;6.67;6.67;;;;;;;;5091763;27;45451;-70
2022/07/14 09:25:08;;;;;;;;;7.00;7.00;;;;;;;;5094958;27;45374;-70
2022/07/14 09:27:33;;;;;;;;;6.67;6.67;;;;;;;;5096153;27;45440;-70
2022/07/14 09:29:58;;;;;;;;;7.00;7.00;;;;;;;;5097145;27;47320;-69
2022/07/14 09:32:42;;;;;;;;;7.00;6.67;;;;;;;;5094067;27;46558;-68
2022/07/14 09:35:08;;;;;;;;;7.00;6.67;;;;;;;;5094539;27;45261;-69
2022/07/14 09:37:33;;;;;;;;;5.33;5.33;;;;;;;;5094829;27;45570;-69
2022/07/14 09:39:59;;;;;;;;;6.00;6.00;;;;;;;;5094240;27;45485;-69
2022/07/14 09:42:43;;;;;;;;;10.00;7.00;;;;;;;;5096637;27;45563;-70
2022/07/14 09:45:09;;;;;;;;;7.00;7.00;;;;;;;;5104131;27;45279;-70
2022/07/14 09:47:50;;;;;;;;;8.00;7.00;;;;;;;;5094662;27;46488;-67
2022/07/14 09:50:30;;;;;;;;;7.33;7.00;;;;;;;;5094149;27;46274;-67
2022/07/14 09:52:55;;;;;;;;;6.67;6.67;;;;;;;;5094166;27;45412;-66
2022/07/14 09:55:22;;;;;;;;;7.33;7.33;;;;;;;;5094185;27;45553;-70
2022/07/14 09:57:48;;;;;;;;;5.00;4.67;;;;;;;;5093767;27;45674;-70
2022/07/14 10:00:18;;;;;;;;;5.00;5.00;;;;;;;;5097207;27;45521;-69
2022/07/14 10:02:43;;;;;;;;;8.00;6.00;;;;;;;;5095229;27;45298;-71
2022/07/14 10:05:09;;;;;;;;;6.33;6.33;;;;;;;;5093990;27;45313;-70
2022/07/14 10:07:36;;;;;;;;;7.00;6.33;;;;;;;;5094248;27;45505;-70
2022/07/14 10:10:08;;;;;;;;;6.50;6.50;;;;;;;;5095514;27;46014;-70
2022/07/14 10:12:34;;;;;;;;;6.00;6.00;;;;;;;;5095313;27;45401;-70
2022/07/14 10:15:02;;;;;;;;;8.33;6.67;;;;;;;;5096306;27;45326;-70
2022/07/14 10:17:28;;;;;;;;;7.67;7.67;;;;;;;;5093489;27;45480;-70
2022/07/14 10:19:54;;;;;;;;;6.67;6.67;;;;;;;;5093606;27;45374;-71
2022/07/14 10:22:20;;;;;;;;;7.00;7.00;;;;;;;;5083192;27;45398;-70
2022/07/14 10:24:46;;;;;;;;;6.33;6.33;;;;;;;;5094070;27;45418;-70
2022/07/14 10:27:12;;;;;;;;;7.00;7.00;;;;;;;;5097466;27;45393;-70
2022/07/14 10:29:37;;;;;;;;;9.33;6.00;;;;;;;;5093776;27;46828;-70
2022/07/14 10:32:14;;;;;;;;;6.33;6.00;;;;;;;;5093619;27;45270;-72
2022/07/14 10:34:40;;;;;;;;;7.00;7.00;;;;;;;;5093813;27;45620;-71
2022/07/14 10:37:09;;;;;;;;;5.67;5.67;;;;;;;;5093675;27;45401;-70
2022/07/14 10:39:53;;;;;;;;;5.67;5.67;;;;;;;;5094737;27;45438;-69
2022/07/14 10:42:32;;;;;;;;;5.67;5.67;;;;;;;;5093123;27;45436;-71
2022/07/14 10:45:00;;;;;;;;;8.33;8.33;;;;;;;;5095591;27;45291;-70
2022/07/14 10:47:41;;;;;;;;;5.00;5.00;;;;;;;;5093413;27;45535;-70
2022/07/14 10:50:13;;;;;;;;;8.00;6.00;;;;;;;;5094733;27;45373;-71
2022/07/14 10:52:47;;;;;;;;;6.00;5.33;;;;;;;;5093326;27;45390;-71
2022/07/14 10:55:13;;;;;;;;;6.33;5.67;;;;;;;;5092939;27;45329;-71
2022/07/14 10:57:39;;;;;;;;;5.67;4.67;;;;;;;;5094561;27;45353;-71
2022/07/14 11:00:05;;;;;;;;;8.67;6.67;;;;;;;;5096763;27;45626;-71
2022/07/14 11:02:32;;;;;;;;;6.00;6.00;;;;;;;;5093176;27;45401;-71
2022/07/14 11:05:18;;;;;;;;;4.67;4.67;;;;;;;;5093552;27;46625;-71
2022/07/14 11:07:50;;;;;;;;;8.00;7.00;;;;;;;;5092947;27;45544;-70
2022/07/14 11:10:18;;;;;;;;;6.00;6.00;;;;;;;;5092684;27;46334;-70
2022/07/14 11:12:59;;;;;;;;;7.33;7.33;;;;;;;;5092811;27;45316;-71
2022/07/14 11:15:43;;;;;;;;;8.33;7.00;;;;;;;;5095450;27;45874;-71
2022/07/14 11:18:17;;;;;;;;;7.67;6.00;;;;;;;;5096742;27;45672;-70
2022/07/14 11:20:55;;;;;;;;;6.67;5.67;;;;;;;;5093451;27;47241;-71
2022/07/14 11:23:21;;;;;;;;;8.00;6.33;;;;;;;;5092686;27;45409;-71
2022/07/14 11:25:48;;;;;;;;;6.00;6.00;;;;;;;;5093105;27;45287;-71
2022/07/14 11:28:33;;;;;;;;;6.33;6.00;;;;;;;;5092597;27;45379;-71
2022/07/14 11:31:18;;;;;;;;;5.67;5.67;;;;;;;;5090224;27;47334;-71
2022/07/14 11:36:37;;;;;;;;;5.00;5.00;;;;;;;;5093577;27;45359;-70
2022/07/14 11:39:14;;;;;;;;;6.33;6.33;;;;;;;;5095555;27;45535;-70
2022/07/14 11:42:01;;;;;;;;;6.00;6.00;;;;;;;;5094405;27;46351;-69
2022/07/14 11:44:35;;;;;;;;;6.00;5.00;;;;;;;;5092221;27;45446;-70
2022/07/14 11:47:02;;;;;;;;;5.67;4.67;;;;;;;;5092023;27;45339;-70
2022/07/14 11:49:27;;;;;;;;;7.00;7.00;;;;;;;;5092457;27;48360;-70
2022/07/14 11:51:59;;;;;;;;;6.00;6.00;;;;;;;;5092341;27;46244;-70
2022/07/14 11:54:25;;;;;;;;;5.67;5.67;;;;;;;;5094841;27;45557;-70
2022/07/14 11:57:00;;;;;;;;;6.00;5.33;;;;;;;;5093139;27;45511;-70
2022/07/14 11:59:25;;;;;;;;;6.00;6.00;;;;;;;;5091886;27;45402;-70
2022/07/14 12:01:50;;;;;;;;;5.33;5.33;;;;;;;;5093907;27;45581;-70
2022/07/14 12:04:19;;;;;;;;;5.00;4.33;;;;;;;;5092409;27;45381;-70
2022/07/14 12:06:45;;;;;;;;;7.00;7.00;;;;;;;;5092187;27;45361;-70
2022/07/14 12:09:11;;;;;;;;;6.67;5.00;;;;;;;;5095978;27;45548;-70
2022/07/14 12:11:36;;;;;;;;;4.33;4.33;;;;;;;;5093497;27;45422;-71
2022/07/14 12:14:02;;;;;;;;;7.00;6.00;;;;;;;;5091759;27;45485;-71
2022/07/14 12:16:28;;;;;;;;;6.00;5.00;;;;;;;;5092298;27;45670;-71
2022/07/14 12:18:54;;;;;;;;;6.00;5.00;;;;;;;;5092122;27;45278;-70
2022/07/14 12:21:32;;;;;;;;;6.00;5.00;;;;;;;;5101092;27;45599;-71
2022/07/14 12:23:57;;;;;;;;;7.00;6.00;;;;;;;;5093943;27;45521;-70
2022/07/14 12:26:23;;;;;;;;;6.33;6.00;;;;;;;;5091657;27;48864;-70
2022/07/14 12:28:49;;;;;;;;;6.33;6.33;;;;;;;;5091734;27;45326;-68
2022/07/14 12:31:14;;;;;;;;;7.67;7.67;;;;;;;;5091881;27;45488;-69
2022/07/14 12:33:40;;;;;;;;;8.00;8.00;;;;;;;;5093887;27;45324;-67
2022/07/14 12:36:12;;;;;;;;;9.33;7.67;;;;;;;;5108347;27;45235;-68
2022/07/14 12:38:38;;;;;;;;;8.00;8.00;;;;;;;;5091452;27;45707;-68
2022/07/14 12:41:04;;;;;;;;;5.00;5.00;;;;;;;;5093467;27;45779;-67
2022/07/14 12:43:36;;;;;;;;;8.00;6.33;;;;;;;;5091417;27;45641;-69
2022/07/14 12:46:02;;;;;;;;;8.33;7.00;;;;;;;;5091987;27;45732;-67
2022/07/14 12:48:28;;;;;;;;;7.00;7.00;;;;;;;;5093840;27;45484;-67
2022/07/14 12:50:53;;;;;;;;;8.67;7.33;;;;;;;;5093150;27;45478;-66
2022/07/14 12:53:19;;;;;;;;;7.00;7.00;;;;;;;;5092602;27;45427;-66
2022/07/14 12:55:45;;;;;;;;;6.67;6.67;;;;;;;;5093941;27;45409;-67
2022/07/14 12:58:11;;;;;;;;;7.00;7.00;;;;;;;;5093126;27;45461;-67
2022/07/14 13:00:39;;;;;;;;;6.67;6.67;;;;;;;;5096113;27;45508;-66
2022/07/14 13:03:18;;;;;;;;;9.00;8.00;;;;;;;;5098129;27;45306;-68
2022/07/14 13:06:01;;;;;;;;;9.00;7.67;;;;;;;;5095928;27;45370;-68
2022/07/14 13:08:32;;;;;;;;;7.00;7.00;;;;;;;;5094253;27;45350;-67
2022/07/14 13:10:58;;;;;;;;;6.33;6.33;;;;;;;;5094947;27;46363;-67
2022/07/14 13:13:28;;;;;;;;;7.67;6.33;;;;;;;;5097020;27;45555;-67
2022/07/14 13:16:12;;;;;;;;;10.67;9.67;;;;;;;;5094937;27;45425;-68
2022/07/14 13:18:37;;;;;;;;;7.00;7.00;;;;;;;;5095978;27;45362;-68
2022/07/14 13:21:02;;;;;;;;;7.33;7.00;;;;;;;;5097390;27;45426;-68
2022/07/14 13:23:29;;;;;;;;;8.00;6.00;;;;;;;;5096080;27;45544;-68
2022/07/14 13:26:05;;;;;;;;;7.00;7.00;;;;;;;;5095205;27;45499;-67
2022/07/14 13:28:30;;;;;;;;;8.33;8.33;;;;;;;;5094389;27;45501;-67
2022/07/14 13:30:56;;;;;;;;;5.00;5.00;;;;;;;;5096248;27;46878;-66
2022/07/14 13:33:21;;;;;;;;;7.00;7.00;;;;;;;;5097012;27;45381;-67
2022/07/14 13:35:46;;;;;;;;;5.33;5.33;;;;;;;;5096143;27;45300;-67
2022/07/14 13:38:11;;;;;;;;;7.67;7.67;;;;;;;;5094570;27;45517;-66
2022/07/14 13:40:36;;;;;;;;;6.33;6.33;;;;;;;;5094528;27;45452;-67
2022/07/14 13:43:02;;;;;;;;;5.33;4.67;;;;;;;;5094822;27;45363;-66
2022/07/14 13:45:27;;;;;;;;;5.67;5.67;;;;;;;;5096658;27;45421;-66
2022/07/14 13:47:52;;;;;;;;;6.00;5.33;;;;;;;;5105715;27;45424;-67
2022/07/14 13:53:01;;;;;;;;;7.67;7.67;;;;;;;;5095650;27;45338;-67
2022/07/14 13:55:26;;;;;;;;;8.67;6.67;;;;;;;;5094208;27;45369;-66
2022/07/14 13:57:52;;;;;;;;;5.33;5.33;;;;;;;;5097987;27;45470;-66
2022/07/14 14:00:17;;;;;;;;;6.33;5.33;;;;;;;;5112192;27;46393;-69
2022/07/14 14:05:26;;;;;;;;;8.33;7.00;;;;;;;;5097977;27;45269;-69
2022/07/14 14:07:51;;;;;;;;;6.33;6.33;;;;;;;;5100468;27;45316;-69
2022/07/14 14:10:16;;;;;;;;;6.33;6.33;;;;;;;;5093293;27;46717;-69
2022/07/14 14:12:42;;;;;;;;;7.00;6.00;;;;;;;;5094484;27;45383;-69
2022/07/14 14:15:07;;;;;;;;;4.33;4.33;;;;;;;;5097777;27;45300;-69
2022/07/14 14:17:33;;;;;;;;;6.00;6.00;;;;;;;;5094170;27;45378;-69
2022/07/14 14:19:59;;;;;;;;;10.00;8.00;;;;;;;;5094008;27;46531;-69
2022/07/14 14:22:24;;;;;;;;;7.00;5.33;;;;;;;;5093694;27;45837;-68
2022/07/14 14:24:49;;;;;;;;;7.00;7.00;;;;;;;;5103222;27;45294;-69
2022/07/14 14:27:15;;;;;;;;;7.67;5.67;;;;;;;;5109270;27;45400;-69
2022/07/14 14:29:42;;;;;;;;;8.67;8.67;;;;;;;;5094020;27;45302;-68
2022/07/14 14:32:07;;;;;;;;;5.33;5.33;;;;;;;;5093656;27;45497;-69
2022/07/14 14:34:32;;;;;;;;;7.33;7.00;;;;;;;;5093906;27;45503;-68
2022/07/14 14:36:58;;;;;;;;;7.33;6.00;;;;;;;;5093778;27;45411;-69
2022/07/14 14:39:23;;;;;;;;;8.00;6.00;;;;;;;;5103366;27;45647;-70
2022/07/14 14:41:48;;;;;;;;;9.33;7.67;;;;;;;;5094646;27;45402;-69
2022/07/14 14:44:14;;;;;;;;;9.00;6.00;;;;;;;;5093956;27;45454;-69
2022/07/14 14:46:39;;;;;;;;;7.00;6.67;;;;;;;;5095108;27;45521;-70
2022/07/14 14:49:04;;;;;;;;;6.33;5.33;;;;;;;;5093257;27;45447;-69
2022/07/14 14:51:29;;;;;;;;;6.67;6.00;;;;;;;;5095418;27;45703;-70
2022/07/14 14:53:54;;;;;;;;;6.00;5.33;;;;;;;;5095104;27;45472;-69